Time;durP1;ratioP1;P1;durP2;ratioP2;P2;SDS_P1;SDS_P2;PMS_P1;PMS_P2;Temp;Humidity;BMP_temperature;BMP_pressure;BME280_temperature;BME280_humidity;BME280_pressure;Samples;Min_cycle;Max_cycle;Signal;HPM_P1;HPM_P2
2022/10/18 00:00:10;;;;;;;7.40;4.67;;;18.20;99.90;;;18.86;nan;101456.97;4995692;28;20965;-64
2022/10/18 00:02:37;;;;;;;5.10;4.27;;;18.20;99.90;;;18.82;nan;101460.88;5014237;28;20704;-65
2022/10/18 00:05:05;;;;;;;7.77;4.70;;;18.20;99.90;;;18.77;nan;101458.66;5008553;28;20723;-67
2022/10/18 00:07:32;;;;;;;7.53;4.70;;;18.10;99.90;;;18.75;nan;101459.78;4993357;28;20631;-66
2022/10/18 00:09:59;;;;;;;5.13;4.57;;;18.20;99.90;;;18.78;nan;101463.00;5001859;28;20633;-64
2022/10/18 00:12:26;;;;;;;6.93;4.60;;;18.10;99.90;;;18.86;nan;101457.81;4993858;28;21216;-65
2022/10/18 00:14:53;;;;;;;5.43;4.70;;;18.20;99.90;;;18.77;nan;101456.03;5012736;28;20666;-64
2022/10/18 00:17:19;;;;;;;6.07;4.83;;;18.20;99.90;;;18.83;nan;101454.59;5012191;28;20602;-65
2022/10/18 00:19:48;;;;;;;18.63;4.90;;;18.20;99.90;;;18.84;nan;101458.94;5011786;28;20618;-64
2022/10/18 00:22:14;;;;;;;8.53;4.60;;;18.20;99.90;;;18.81;nan;101467.13;4998651;28;20641;-64
2022/10/18 00:24:41;;;;;;;7.10;4.60;;;18.20;99.90;;;18.87;nan;101458.66;4995835;28;20669;-64
2022/10/18 00:27:08;;;;;;;7.03;4.03;;;18.20;99.90;;;18.84;nan;101469.50;4992679;28;20623;-64
2022/10/18 00:29:35;;;;;;;6.67;4.60;;;18.20;99.90;;;18.82;nan;101458.25;4992564;28;20631;-64
2022/10/18 00:32:02;;;;;;;6.07;4.53;;;18.20;99.90;;;18.88;nan;101455.84;4992713;28;20676;-66
2022/10/18 00:34:29;;;;;;;7.97;4.90;;;18.20;99.90;;;18.87;nan;101456.00;4991689;28;20684;-63
2022/10/18 00:36:56;;;;;;;10.43;4.90;;;18.20;99.90;;;18.89;nan;101454.88;4992565;28;20625;-64
2022/10/18 00:39:23;;;;;;;14.87;5.00;;;18.20;99.90;;;18.83;nan;101451.97;4991615;28;20637;-64
2022/10/18 00:41:50;;;;;;;6.07;4.90;;;18.20;99.90;;;18.89;nan;101464.63;4991736;28;21214;-64
2022/10/18 00:44:17;;;;;;;6.40;4.67;;;18.20;99.90;;;18.90;nan;101455.69;5009653;28;20670;-64
2022/10/18 00:46:47;;;;;;;8.27;4.83;;;18.20;99.90;;;18.91;nan;101455.56;5011598;28;20632;-64
2022/10/18 00:49:20;;;;;;;5.50;4.33;;;18.20;99.90;;;18.89;nan;101457.50;4998280;28;20645;-64
2022/10/18 00:52:10;;;;;;;6.23;4.80;;;18.20;99.90;;;18.89;nan;101462.00;4974332;28;20620;-64
2022/10/18 00:54:41;;;;;;;9.63;4.90;;;18.20;99.90;;;18.86;nan;101451.69;4986395;28;20682;-64
2022/10/18 00:57:09;;;;;;;8.47;4.33;;;18.20;99.90;;;18.85;nan;101460.56;4994182;28;20622;-65
2022/10/18 00:59:36;;;;;;;7.03;4.33;;;18.20;99.90;;;18.81;nan;101453.91;4993473;28;20993;-64
2022/10/18 01:02:04;;;;;;;15.13;4.50;;;18.20;99.90;;;18.76;nan;101451.69;5012560;28;20609;-64
2022/10/18 01:04:32;;;;;;;4.70;3.80;;;18.20;99.90;;;18.74;nan;101453.66;4993764;28;20708;-64
2022/10/18 01:07:24;;;;;;;7.80;4.70;;;18.10;99.90;;;18.80;nan;101453.09;5012463;28;20632;-64
2022/10/18 01:10:28;;;;;;;5.43;4.40;;;18.10;99.90;;;18.74;nan;101452.84;5004197;28;20638;-64
2022/10/18 01:13:41;;;;;;;7.60;4.73;;;18.10;99.90;;;18.76;nan;101456.16;4991381;28;20650;-65
2022/10/18 01:16:28;;;;;;;6.07;4.80;;;18.10;99.90;;;18.72;nan;101449.50;4992573;28;20638;-64
2022/10/18 01:19:39;;;;;;;12.43;4.73;;;18.10;99.90;;;18.70;nan;101451.47;5001896;28;20614;-66
2022/10/18 01:22:22;;;;;;;5.87;3.87;;;18.10;99.90;;;18.76;nan;101456.16;4998234;28;20635;-64
2022/10/18 01:25:07;;;;;;;6.87;4.80;;;18.10;99.90;;;18.70;nan;101443.53;4991201;28;20622;-64
2022/10/18 01:27:57;;;;;;;6.00;4.60;;;18.00;99.90;;;18.69;nan;101455.06;4994509;28;20638;-64
2022/10/18 01:30:54;;;;;;;6.40;4.37;;;18.00;99.90;;;18.72;nan;101450.31;5004579;28;21063;-64
2022/10/18 01:33:35;;;;;;;4.90;4.40;;;18.00;99.90;;;18.74;nan;101447.56;4973541;28;20675;-64
2022/10/18 01:36:17;;;;;;;5.53;4.50;;;18.00;99.90;;;18.69;nan;101444.50;4992659;28;20667;-63
2022/10/18 01:38:46;;;;;;;5.43;4.50;;;18.00;99.90;;;18.63;nan;101435.34;5010041;28;20617;-64
2022/10/18 01:41:15;;;;;;;8.00;4.30;;;18.00;99.90;;;18.50;nan;101435.63;4998740;28;20996;-64
2022/10/18 01:43:45;;;;;;;4.90;3.90;;;17.90;99.90;;;18.46;nan;101436.88;5002041;28;20653;-64
2022/10/18 01:46:19;;;;;;;9.70;4.57;;;17.90;99.90;;;18.43;nan;101434.50;5006706;28;20634;-63
2022/10/18 01:48:46;;;;;;;4.27;3.80;;;17.90;99.90;;;18.41;nan;101441.72;5005976;28;21228;-62
2022/10/18 01:51:13;;;;;;;4.37;3.93;;;17.90;99.90;;;18.30;nan;101433.94;5003747;28;21201;-65
2022/10/18 01:53:40;;;;;;;9.80;4.17;;;17.80;99.90;;;18.14;nan;101428.41;4994788;28;20679;-64
2022/10/18 01:56:44;;;;;;;6.37;4.03;;;17.80;99.90;;;18.10;nan;101420.91;4990664;28;20617;-65
2022/10/18 01:59:42;;;;;;;4.03;3.67;;;17.60;99.90;;;18.14;nan;101420.50;5008780;28;20996;-65
2022/10/18 02:02:35;;;;;;;6.60;4.40;;;17.60;99.90;;;18.00;nan;101415.59;4995968;28;20638;-63
2022/10/18 02:05:27;;;;;;;4.90;4.10;;;17.60;99.90;;;18.19;nan;101426.16;4995262;28;20635;-66
2022/10/18 02:08:26;;;;;;;5.93;4.00;;;17.60;99.90;;;18.11;nan;101420.75;4995844;28;20621;-64
2022/10/18 02:11:08;;;;;;;3.90;3.57;;;17.60;99.90;;;18.02;nan;101418.09;4994433;28;20634;-64
2022/10/18 02:13:43;;;;;;;6.70;4.03;;;17.60;99.90;;;18.07;nan;101419.38;4992850;28;20684;-64
2022/10/18 02:16:16;;;;;;;4.23;3.80;;;17.50;99.90;;;18.09;nan;101420.06;4996438;28;20623;-64
2022/10/18 02:19:11;;;;;;;4.50;3.43;;;17.50;99.90;;;18.09;nan;101408.66;4996479;28;20625;-65
2022/10/18 02:21:42;;;;;;;3.67;3.37;;;17.60;99.90;;;18.11;nan;101407.56;5015205;28;20749;-63
2022/10/18 02:24:12;;;;;;;5.00;3.50;;;17.50;99.90;;;18.08;nan;101414.94;5009833;28;20713;-64
2022/10/18 02:26:39;;;;;;;5.80;3.40;;;17.50;99.90;;;18.06;nan;101415.03;4978934;28;20645;-64
2022/10/18 02:29:07;;;;;;;6.47;3.83;;;17.50;99.90;;;17.95;nan;101401.16;5009700;28;20643;-64
2022/10/18 02:31:46;;;;;;;4.23;3.47;;;17.50;99.90;;;17.77;nan;101411.56;5012341;28;21025;-64
2022/10/18 02:34:31;;;;;;;12.83;3.77;;;17.50;99.90;;;17.78;nan;101411.44;4992665;28;20673;-65
2022/10/18 02:37:00;;;;;;;4.20;3.57;;;17.40;99.90;;;17.82;nan;101399.63;4996573;28;20630;-64
2022/10/18 02:39:39;;;;;;;3.67;2.97;;;17.40;99.90;;;17.81;nan;101399.75;4989747;28;21001;-64
2022/10/18 02:42:09;;;;;;;3.77;3.47;;;17.30;99.90;;;17.87;nan;101404.47;5009929;28;20628;-64
2022/10/18 02:44:37;;;;;;;7.53;4.10;;;17.40;99.90;;;17.78;nan;101400.88;4976745;28;20696;-64
2022/10/18 02:47:06;;;;;;;4.20;3.80;;;17.30;99.90;;;17.87;nan;101395.75;4994051;28;20618;-64
2022/10/18 02:49:33;;;;;;;5.93;4.27;;;17.40;99.90;;;17.84;nan;101410.88;4990815;28;21263;-64
2022/10/18 02:52:00;;;;;;;8.87;4.37;;;17.30;99.90;;;17.83;nan;101403.09;5002071;28;20646;-64
2022/10/18 02:54:27;;;;;;;5.70;4.70;;;17.30;99.90;;;17.91;nan;101410.34;4993639;28;20734;-64
2022/10/18 02:56:54;;;;;;;7.53;4.30;;;17.30;99.90;;;17.78;nan;101410.63;4993496;28;21170;-62
2022/10/18 02:59:21;;;;;;;3.70;3.40;;;17.30;99.90;;;17.79;nan;101409.63;5006701;28;20634;-65
2022/10/18 03:01:48;;;;;;;3.80;3.40;;;17.30;99.90;;;17.64;nan;101416.28;5005160;28;20628;-64
2022/10/18 03:04:15;;;;;;;4.90;4.07;;;17.20;99.90;;;17.74;nan;101415.31;4995121;28;20662;-64
2022/10/18 03:06:42;;;;;;;6.63;3.90;;;17.20;99.90;;;17.72;nan;101416.41;5010924;28;20691;-64
2022/10/18 03:09:09;;;;;;;13.67;4.33;;;17.20;99.90;;;17.75;nan;101417.00;5012623;28;20660;-65
2022/10/18 03:11:36;;;;;;;5.43;3.67;;;17.30;99.90;;;17.79;nan;101415.75;5011181;28;20621;-64
2022/10/18 03:14:03;;;;;;;4.53;3.17;;;17.30;99.90;;;17.69;nan;101414.91;5011672;28;20685;-64
2022/10/18 03:16:30;;;;;;;3.87;3.50;;;17.20;99.90;;;17.74;nan;101415.31;4994023;28;20645;-65
2022/10/18 03:18:57;;;;;;;5.33;4.77;;;17.20;99.90;;;17.89;nan;101423.66;4993209;28;20618;-65
2022/10/18 03:21:24;;;;;;;5.63;4.73;;;17.30;99.90;;;17.98;nan;101435.19;4994154;28;20623;-65
2022/10/18 03:23:51;;;;;;;6.13;4.00;;;17.30;99.90;;;18.02;nan;101420.75;4977273;28;20642;-64
2022/10/18 03:26:17;;;;;;;4.97;4.03;;;17.30;99.90;;;18.06;nan;101424.81;4994651;28;20786;-64
2022/10/18 03:28:44;;;;;;;7.33;4.97;;;17.40;99.90;;;18.11;nan;101436.59;5006471;28;21209;-65
2022/10/18 03:31:11;;;;;;;5.67;5.03;;;17.40;99.90;;;18.13;nan;101462.88;5004365;28;20639;-64
2022/10/18 03:33:39;;;;;;;12.03;4.90;;;17.40;99.90;;;18.05;nan;101478.56;4997627;28;20685;-64
2022/10/18 03:36:06;;;;;;;4.57;3.90;;;17.50;99.90;;;18.07;nan;101474.84;5012364;28;21011;-64
2022/10/18 03:38:32;;;;;;;7.03;4.00;;;17.50;99.90;;;18.20;nan;101464.00;5001313;28;21228;-64
2022/10/18 03:40:59;;;;;;;9.30;5.80;;;17.50;99.90;;;18.19;nan;101484.28;4977096;28;20979;-64
2022/10/18 03:43:26;;;;;;;5.67;4.90;;;17.50;99.90;;;18.17;nan;101480.09;5003940;23;20684;-62
2022/10/18 03:45:53;;;;;;;5.80;4.30;;;17.50;99.90;;;18.19;nan;101480.78;5012834;28;20618;-62
2022/10/18 03:48:20;;;;;;;7.97;4.90;;;17.50;99.90;;;18.21;nan;101487.63;5012009;28;20626;-63
2022/10/18 03:50:47;;;;;;;7.10;4.93;;;17.50;99.90;;;18.00;nan;101475.50;5011111;28;20974;-62
2022/10/18 03:53:14;;;;;;;10.83;4.43;;;17.50;99.90;;;17.92;nan;101475.38;4992523;28;20643;-62
2022/10/18 03:55:41;;;;;;;6.27;4.63;;;17.40;99.90;;;17.83;nan;101474.38;4992720;28;20680;-62
2022/10/18 03:58:08;;;;;;;8.53;5.07;;;17.30;99.90;;;17.93;nan;101477.84;5000302;28;20640;-62
2022/10/18 04:00:35;;;;;;;8.03;5.30;;;17.30;99.90;;;17.93;nan;101483.13;5012233;28;21158;-62
2022/10/18 04:03:02;;;;;;;4.93;4.43;;;17.30;99.90;;;18.00;nan;101486.06;5011574;28;20626;-62
2022/10/18 04:05:30;;;;;;;7.53;5.10;;;17.30;99.90;;;17.99;nan;101490.53;5009201;28;20644;-63
2022/10/18 04:07:57;;;;;;;11.27;5.10;;;17.40;99.90;;;18.05;nan;101492.63;5011694;28;20630;-63
2022/10/18 04:10:24;;;;;;;5.30;4.40;;;17.40;99.90;;;18.06;nan;101491.63;4994037;28;21058;-62
2022/10/18 04:12:51;;;;;;;5.53;4.50;;;17.40;99.90;;;18.01;nan;101493.88;4992798;28;21204;-63
2022/10/18 04:15:18;;;;;;;9.80;5.10;;;17.40;99.90;;;18.06;nan;101489.00;4993201;28;20662;-62
2022/10/18 04:17:45;;;;;;;6.03;4.30;;;17.40;99.90;;;18.06;nan;101489.00;4993417;28;21216;-62
2022/10/18 04:20:12;;;;;;;5.30;4.80;;;17.40;99.90;;;18.08;nan;101479.13;4991613;28;20625;-62
2022/10/18 04:22:39;;;;;;;7.70;4.73;;;17.50;99.90;;;18.08;nan;101484.41;4995201;28;21021;-62
2022/10/18 04:25:06;;;;;;;5.53;4.40;;;17.50;99.90;;;18.15;nan;101495.25;5011938;28;21024;-62
2022/10/18 04:27:34;;;;;;;10.97;4.40;;;17.50;99.90;;;18.16;nan;101489.00;4978071;28;20614;-63
2022/10/18 04:30:02;;;;;;;6.47;4.67;;;17.50;99.90;;;18.00;nan;101484.25;4992237;28;20662;-63
2022/10/18 04:32:29;;;;;;;6.07;4.90;;;17.50;99.90;;;18.13;nan;101479.56;4991393;28;20626;-63
2022/10/18 04:34:55;;;;;;;7.77;5.43;;;17.50;99.90;;;18.08;nan;101483.59;5007214;28;20661;-64
2022/10/18 04:37:22;;;;;;;8.03;4.90;;;17.50;99.90;;;18.10;nan;101484.28;5012558;28;20629;-63
2022/10/18 04:39:49;;;;;;;5.97;5.10;;;17.50;99.90;;;18.13;nan;101478.72;4999970;28;20639;-64
2022/10/18 04:42:20;;;;;;;7.60;5.80;;;17.50;99.90;;;18.10;nan;101484.28;4993096;28;20623;-63
2022/10/18 04:44:47;;;;;;;7.50;5.87;;;17.50;99.90;;;18.10;nan;101485.09;4991477;28;20668;-63
2022/10/18 04:47:15;;;;;;;6.40;5.37;;;17.50;99.90;;;18.21;nan;101479.69;4974744;28;20618;-64
2022/10/18 04:49:42;;;;;;;6.00;4.90;;;17.50;99.90;;;18.22;nan;101497.22;4973476;28;21223;-64
2022/10/18 04:52:09;;;;;;;4.43;3.90;;;17.50;99.90;;;18.16;nan;101499.59;4975674;28;20686;-64
2022/10/18 04:54:36;;;;;;;7.70;4.73;;;17.50;99.90;;;18.19;nan;101492.22;4991656;28;20680;-64
2022/10/18 04:57:03;;;;;;;7.90;4.60;;;17.50;99.90;;;18.13;nan;101491.91;4992764;28;20625;-64
2022/10/18 04:59:30;;;;;;;9.00;4.80;;;17.50;99.90;;;18.15;nan;101488.19;4991885;28;20634;-64
2022/10/18 05:01:57;;;;;;;9.20;5.30;;;17.50;99.90;;;18.06;nan;101486.34;4991438;28;20643;-63
2022/10/18 05:04:24;;;;;;;7.27;5.50;;;17.50;99.90;;;18.07;nan;101481.91;5012000;28;21077;-63
2022/10/18 05:06:51;;;;;;;10.53;4.50;;;17.50;99.90;;;18.26;nan;101495.97;5010149;28;20634;-63
2022/10/18 05:09:18;;;;;;;6.43;4.57;;;17.50;99.90;;;18.26;nan;101493.34;4982350;28;21117;-63
2022/10/18 05:11:45;;;;;;;9.70;6.10;;;17.60;99.90;;;18.17;nan;101499.44;4971026;28;20645;-64
2022/10/18 05:14:12;;;;;;;6.57;4.60;;;17.60;99.90;;;18.16;nan;101499.59;5007996;28;20747;-63
2022/10/18 05:16:39;;;;;;;6.30;4.63;;;17.50;99.90;;;18.19;nan;101492.22;5010937;28;20618;-64
2022/10/18 05:19:06;;;;;;;6.63;4.70;;;17.50;99.90;;;18.27;nan;101492.34;5010891;28;21192;-63
2022/10/18 05:21:33;;;;;;;6.10;4.90;;;17.60;99.90;;;18.02;nan;101490.25;5012246;28;20610;-64
2022/10/18 05:24:00;;;;;;;9.70;5.20;;;17.50;99.90;;;17.93;nan;101495.53;4993825;28;20658;-63
2022/10/18 05:26:27;;;;;;;5.20;4.30;;;17.40;99.90;;;17.88;nan;101493.28;4991414;28;20627;-63
2022/10/18 05:28:54;;;;;;;6.13;5.23;;;17.40;99.90;;;17.95;nan;101491.78;5005353;28;20630;-63
2022/10/18 05:31:21;;;;;;;6.60;5.37;;;17.30;99.90;;;17.98;nan;101486.22;5010534;28;21181;-63
2022/10/18 05:33:48;;;;;;;5.73;5.13;;;17.30;99.90;;;18.13;nan;101476.91;4997470;28;21012;-63
2022/10/18 05:36:15;;;;;;;6.80;5.23;;;17.40;99.90;;;17.95;nan;101483.88;4974423;28;20655;-64
2022/10/18 05:38:44;;;;;;;9.20;5.90;;;17.40;99.90;;;18.02;nan;101482.31;4994902;28;20648;-63
2022/10/18 05:41:11;;;;;;;9.43;5.20;;;17.40;99.90;;;18.05;nan;101482.06;5001853;28;21226;-65
2022/10/18 05:43:39;;;;;;;9.60;5.10;;;17.40;99.90;;;18.05;nan;101476.78;5010310;28;20727;-64
2022/10/18 05:46:07;;;;;;;8.37;5.87;;;17.40;99.90;;;18.07;nan;101485.41;5003510;28;20638;-64
2022/10/18 05:48:39;;;;;;;9.00;5.33;;;17.40;99.90;;;18.04;nan;101480.38;4990925;28;21250;-63
2022/10/18 05:51:06;;;;;;;5.43;4.80;;;17.40;99.90;;;18.07;nan;101489.84;4996012;28;20640;-63
2022/10/18 05:53:33;;;;;;;5.83;5.20;;;17.40;99.90;;;18.02;nan;101490.25;4994806;28;20665;-64
2022/10/18 05:56:04;;;;;;;8.63;5.83;;;17.40;99.90;;;18.07;nan;101482.75;4990833;28;20673;-63
2022/10/18 05:58:31;;;;;;;8.37;5.43;;;17.40;99.90;;;18.08;nan;101487.06;4974787;28;20608;-63
2022/10/18 06:01:04;;;;;;;7.20;5.37;;;17.40;99.90;;;18.04;nan;101485.66;4989691;28;20627;-63
2022/10/18 06:03:31;;;;;;;9.47;5.00;;;17.40;99.90;;;17.89;nan;101487.03;4991153;28;21188;-64
2022/10/18 06:06:04;;;;;;;7.87;5.33;;;17.40;99.90;;;17.99;nan;101487.91;4972875;28;20645;-63
2022/10/18 06:08:32;;;;;;;10.63;5.30;;;17.40;99.90;;;17.94;nan;101497.19;5000584;28;20700;-64
2022/10/18 06:11:13;;;;;;;5.13;3.97;;;17.30;99.90;;;17.88;nan;101487.16;4977145;28;20622;-64
2022/10/18 06:13:50;;;;;;;7.17;5.00;;;17.30;99.90;;;17.99;nan;101481.78;4972967;28;20663;-61
2022/10/18 06:16:20;;;;;;;9.20;5.07;;;17.30;99.90;;;18.00;nan;101479.00;4990024;28;20681;-63
2022/10/18 06:18:49;;;;;;;8.50;5.80;;;17.40;99.90;;;17.93;nan;101485.78;4989907;28;20635;-63
2022/10/18 06:21:17;;;;;;;8.27;5.17;;;17.30;99.90;;;17.96;nan;101487.31;4973683;28;20637;-63
2022/10/18 06:23:52;;;;;;;11.73;6.40;;;17.30;99.90;;;18.01;nan;101475.38;4991659;28;21026;-63
2022/10/18 06:26:19;;;;;;;7.97;5.77;;;17.40;99.90;;;18.03;nan;101483.16;4973567;28;20617;-63
2022/10/18 06:28:47;;;;;;;7.47;5.70;;;17.40;99.90;;;17.98;nan;101485.38;4991677;28;20627;-64
2022/10/18 06:31:14;;;;;;;6.73;4.50;;;17.40;99.90;;;18.05;nan;101483.84;4974687;28;20646;-65
2022/10/18 06:33:42;;;;;;;6.40;5.10;;;17.40;99.90;;;18.17;nan;101480.94;4996411;28;20662;-64
2022/10/18 06:36:13;;;;;;;7.67;5.27;;;17.40;99.90;;;18.17;nan;101477.47;5000083;28;20669;-64
2022/10/18 06:38:40;;;;;;;8.57;5.20;;;17.50;99.90;;;18.18;nan;101493.19;4993010;28;20671;-65
2022/10/18 06:41:07;;;;;;;12.97;5.30;;;17.50;99.90;;;18.16;nan;101500.44;4992583;28;20610;-65
2022/10/18 06:43:35;;;;;;;10.40;5.60;;;17.50;99.90;;;18.22;nan;101496.38;4991423;28;20673;-64
2022/10/18 06:46:05;;;;;;;12.80;5.77;;;17.50;99.90;;;18.15;nan;101498.75;5010744;28;20634;-64
2022/10/18 06:48:35;;;;;;;9.83;5.43;;;17.50;99.90;;;18.25;nan;101502.22;4997003;28;20639;-65
2022/10/18 06:51:05;;;;;;;8.60;5.20;;;17.50;99.90;;;18.20;nan;101517.66;5009964;28;20648;-64
2022/10/18 06:53:35;;;;;;;7.60;5.97;;;17.50;99.90;;;18.21;nan;101521.97;4984000;28;20676;-64
2022/10/18 06:56:12;;;;;;;9.10;5.90;;;17.50;99.90;;;18.23;nan;101535.84;4987333;28;20668;-64
2022/10/18 06:58:39;;;;;;;9.40;5.57;;;17.50;99.90;;;18.21;nan;101540.44;4977408;28;21328;-64
2022/10/18 07:01:09;;;;;;;9.90;6.10;;;17.50;99.90;;;18.24;nan;101545.47;4977637;28;20623;-65
2022/10/18 07:03:37;;;;;;;8.50;5.87;;;17.60;99.90;;;18.25;nan;101556.88;5009458;28;20665;-64
2022/10/18 07:06:09;;;;;;;7.23;5.27;;;17.60;99.90;;;18.20;nan;101557.28;4995099;28;20617;-64
2022/10/18 07:08:37;;;;;;;9.50;6.30;;;17.50;99.90;;;18.17;nan;101562.00;5001022;28;20644;-64
2022/10/18 07:11:05;;;;;;;13.40;4.90;;;17.50;99.90;;;18.18;nan;101563.69;4994004;28;20637;-64
2022/10/18 07:13:33;;;;;;;10.40;5.20;;;17.50;99.90;;;18.21;nan;101561.59;5012537;28;21031;-64
2022/10/18 07:16:12;;;;;;;6.23;5.37;;;17.50;99.90;;;18.25;nan;101557.69;5013356;28;20657;-64
2022/10/18 07:18:47;;;;;;;8.70;6.23;;;17.50;99.90;;;18.30;nan;101555.47;4988401;28;20638;-64
2022/10/18 07:21:17;;;;;;;7.53;5.00;;;17.60;99.90;;;18.31;nan;101562.44;4993184;28;20634;-64
2022/10/18 07:23:45;;;;;;;10.33;5.37;;;17.60;99.90;;;18.35;nan;101573.56;4992686;28;21257;-64
2022/10/18 07:26:26;;;;;;;8.30;5.87;;;17.70;99.90;;;18.34;nan;101569.25;4994507;28;20606;-62
2022/10/18 07:29:05;;;;;;;9.87;5.97;;;17.70;99.90;;;18.38;nan;101570.63;5004125;28;20641;-64
2022/10/18 07:31:32;;;;;;;8.37;5.63;;;17.70;99.90;;;18.45;nan;101558.59;5013038;28;20626;-64
2022/10/18 07:33:59;;;;;;;8.20;6.13;;;17.70;99.90;;;18.47;nan;101562.75;5011008;28;20672;-64
2022/10/18 07:36:26;;;;;;;11.27;6.00;;;17.80;99.90;;;18.63;nan;101569.31;5011100;28;20680;-63
2022/10/18 07:38:53;;;;;;;8.27;6.20;;;17.80;99.90;;;18.77;nan;101574.16;5019920;28;20646;-65
2022/10/18 07:41:21;;;;;;;9.97;5.07;;;17.90;99.90;;;18.88;nan;101568.72;4983262;28;20660;-64
2022/10/18 07:43:50;;;;;;;8.13;4.70;;;18.00;99.90;;;18.90;nan;101580.00;5009094;28;20677;-65
2022/10/18 07:46:19;;;;;;;15.17;5.10;;;18.10;99.90;;;18.86;nan;101582.09;4996103;28;20629;-64
2022/10/18 07:48:46;;;;;;;5.00;4.47;;;18.10;99.90;;;18.83;nan;101578.88;5011524;28;20676;-64
2022/10/18 07:51:13;;;;;;;11.37;5.60;;;18.20;99.90;;;18.92;nan;101578.88;5007289;28;21271;-64
2022/10/18 07:53:40;;;;;;;7.00;4.97;;;18.20;99.90;;;19.07;nan;101580.13;5003195;28;20742;-64
2022/10/18 07:56:15;;;;;;;5.87;4.53;;;18.20;99.90;;;19.19;nan;101578.97;5006211;28;21253;-65
2022/10/18 07:58:51;;;;;;;6.60;4.83;;;18.30;99.90;;;19.24;nan;101582.03;5005958;28;20633;-64
2022/10/18 08:01:20;;;;;;;6.57;4.47;;;18.40;99.90;;;19.30;nan;101580.59;5011777;28;20636;-66
2022/10/18 08:03:48;;;;;;;6.10;4.10;;;18.40;99.90;;;19.33;nan;101589.13;4983312;28;20664;-63
2022/10/18 08:06:19;;;;;;;5.03;3.90;;;18.50;99.90;;;19.26;nan;101587.16;4979934;28;20627;-63
2022/10/18 08:08:47;;;;;;;5.00;4.20;;;18.50;99.90;;;19.26;nan;101584.53;4975017;28;20625;-64
2022/10/18 08:11:18;;;;;;;7.97;5.00;;;18.50;99.90;;;19.28;nan;101580.75;4992560;28;20689;-64
2022/10/18 08:13:45;;;;;;;8.13;5.50;;;18.50;99.90;;;19.59;nan;101584.03;4983679;28;20669;-65
2022/10/18 08:16:19;;;;;;;7.60;5.20;;;18.60;99.90;;;19.70;nan;101583.84;5005344;28;20665;-67
2022/10/18 08:18:46;;;;;;;8.17;4.53;;;18.80;99.90;;;19.77;nan;101589.38;4993763;28;20646;-67
2022/10/18 08:21:15;;;;;;;9.23;4.67;;;18.80;99.90;;;19.77;nan;101592.88;5011650;28;20989;-68
2022/10/18 08:23:43;;;;;;;6.57;4.37;;;18.90;99.90;;;19.86;nan;101602.59;4975291;28;21061;-68
2022/10/18 08:26:14;;;;;;;4.60;4.03;;;18.90;99.90;;;20.03;nan;101611.56;4975423;28;20988;-67
2022/10/18 08:28:42;;;;;;;9.83;4.57;;;19.00;99.90;;;20.16;nan;101608.56;4993145;28;20722;-67
2022/10/18 08:31:17;;;;;;;7.27;4.37;;;19.10;99.90;;;20.37;nan;101617.13;4990728;28;20644;-69
2022/10/18 08:33:46;;;;;;;6.90;4.10;;;19.30;99.90;;;20.35;nan;101617.28;4986945;28;21576;-63
2022/10/18 08:36:15;;;;;;;16.67;7.33;;;19.40;99.90;;;20.47;nan;101613.41;4987188;28;20670;-64
2022/10/18 08:38:43;;;;;;;16.50;7.17;;;19.50;99.90;;;20.48;nan;101617.75;5000296;28;21256;-64
2022/10/18 08:41:48;;;;;;;10.23;5.30;;;19.50;99.90;;;20.23;nan;101614.97;5005256;28;20627;-68
2022/10/18 08:44:18;;;;;;;5.83;3.93;;;19.40;99.90;;;20.33;nan;101616.59;4992787;28;20676;-68
2022/10/18 08:46:50;;;;;;;14.13;5.07;;;19.50;99.90;;;20.39;nan;101610.69;5011013;28;20638;-69
2022/10/18 08:49:27;;;;;;;10.30;5.10;;;19.50;99.90;;;20.38;nan;101609.00;4981377;28;20642;-69
2022/10/18 08:51:56;;;;;;;8.70;5.27;;;19.60;99.90;;;20.55;nan;101602.06;4975698;28;20634;-68
2022/10/18 08:54:54;;;;;;;9.20;5.00;;;19.60;99.90;;;20.80;nan;101599.50;4974250;28;20669;-68
2022/10/18 08:57:21;;;;;;;5.30;4.80;;;19.70;99.90;;;21.12;nan;101608.72;4992546;28;21186;-69
2022/10/18 08:59:48;;;;;;;17.73;4.80;;;19.90;99.90;;;21.36;nan;101601.75;5001045;28;20623;-68
2022/10/18 09:02:38;;;;;;;6.47;4.47;;;20.00;99.90;;;21.47;nan;101608.59;4975257;28;20690;-71
2022/10/18 09:05:39;;;;;;;9.50;4.20;;;20.20;99.90;;;21.61;nan;101606.19;4974553;28;20649;-69
2022/10/18 09:08:31;;;;;;;4.57;3.97;;;20.40;99.90;;;21.71;nan;101602.59;4991965;28;21115;-68
2022/10/18 09:11:26;;;;;;;4.60;3.77;;;20.50;99.90;;;21.77;nan;101593.97;4989913;28;20639;-69
2022/10/18 09:14:06;;;;;;;4.90;4.33;;;20.60;99.90;;;21.75;nan;101601.28;5007147;28;20658;-69
2022/10/18 09:17:04;;;;;;;6.73;4.27;;;20.70;99.90;;;21.58;nan;101595.91;4977999;28;20665;-69
2022/10/18 09:20:01;;;;;;;7.27;4.47;;;20.70;99.90;;;21.62;nan;101607.88;4972896;28;20741;-68
2022/10/18 09:22:49;;;;;;;5.07;4.40;;;20.70;99.90;;;21.45;nan;101605.28;4994786;28;20700;-69
2022/10/18 09:25:24;;;;;;;4.60;3.80;;;20.70;99.90;;;21.56;nan;101613.81;4990752;28;20638;-68
2022/10/18 09:28:26;;;;;;;4.57;4.00;;;20.60;99.90;;;21.85;nan;101608.16;4997746;28;20637;-67
2022/10/18 09:31:06;;;;;;;5.40;3.83;;;20.70;99.90;;;22.46;nan;101612.34;4953875;28;20687;-68
2022/10/18 09:33:53;;;;;;;9.57;3.80;;;21.00;99.90;;;27.66;nan;101617.06;4977576;28;21277;-67
2022/10/18 09:36:25;;;;;;;5.00;3.20;;;22.90;99.90;;;33.15;nan;101617.75;4994332;28;20661;-69
2022/10/18 09:39:02;;;;;;;4.57;3.23;;;26.30;99.90;;;38.49;nan;101624.56;4974866;28;20647;-67
2022/10/18 09:41:50;;;;;;;6.07;3.80;;;29.80;99.90;;;41.86;nan;101625.38;4974461;28;20676;-66
2022/10/18 09:44:26;;;;;;;4.43;4.03;;;33.10;97.70;;;42.87;nan;101630.16;5017913;22;21122;-67
2022/10/18 09:47:17;;;;;;;3.60;3.40;;;35.10;91.10;;;43.37;nan;101633.91;5019838;28;20625;-67
2022/10/18 09:49:55;;;;;;;9.50;4.60;;;36.50;82.20;;;39.29;nan;101624.53;5003817;28;20644;-69
2022/10/18 09:52:31;;;;;;;5.40;3.77;;;35.30;79.00;;;36.29;nan;101620.25;5012890;28;21001;-66
2022/10/18 09:55:04;;;;;;;4.00;3.70;;;33.60;80.70;;;35.89;nan;101617.84;5013966;28;20684;-67
2022/10/18 09:57:41;;;;;;;5.10;4.60;;;32.90;83.40;;;35.28;nan;101624.34;4992074;28;21016;-68
2022/10/18 10:00:22;;;;;;;3.90;3.27;;;32.40;84.10;;;35.24;nan;101617.78;5001082;28;20608;-67
2022/10/18 10:02:48;;;;;;;6.87;3.50;;;32.30;83.60;;;32.79;nan;101626.84;4992299;28;20626;-68
2022/10/18 10:05:15;;;;;;;3.90;3.50;;;31.00;86.00;;;30.89;nan;101616.63;5011192;28;20642;-67
2022/10/18 10:07:46;;;;;;;3.90;3.53;;;29.70;89.30;;;28.34;nan;101618.00;5009243;28;20985;-69
2022/10/18 10:10:23;;;;;;;3.87;3.57;;;28.20;91.70;;;27.67;nan;101608.00;5003711;28;20645;-66
2022/10/18 10:13:24;;;;;;;6.10;3.63;;;27.20;94.60;;;27.55;nan;101608.75;4995302;28;21041;-65
2022/10/18 10:16:01;;;;;;;5.90;3.80;;;26.50;97.50;;;30.84;nan;101617.25;5006858;28;20730;-65
2022/10/18 10:18:35;;;;;;;4.20;3.80;;;27.50;98.50;;;33.77;nan;101620.75;4993481;28;20630;-66
2022/10/18 10:21:06;;;;;;;4.30;3.90;;;29.00;96.30;;;33.51;nan;101624.81;5011840;28;21193;-64
2022/10/18 10:23:44;;;;;;;6.17;4.30;;;29.60;94.60;;;33.45;nan;101631.97;5014767;28;20659;-65
2022/10/18 10:26:31;;;;;;;4.40;3.73;;;29.80;94.00;;;31.73;nan;101628.44;4997784;28;20625;-66
2022/10/18 10:28:58;;;;;;;8.93;3.53;;;29.30;93.80;;;30.20;nan;101622.00;4997131;28;20628;-64
2022/10/18 10:31:33;;;;;;;4.30;3.73;;;28.50;95.00;;;28.74;nan;101626.97;4996923;28;20629;-66
2022/10/18 10:34:18;;;;;;;10.00;7.03;;;27.60;96.70;;;27.66;nan;101625.09;5014473;28;21217;-64
2022/10/18 10:36:52;;;;;;;13.50;7.63;;;26.80;98.50;;;26.78;nan;101621.31;5014085;28;20727;-67
2022/10/18 10:39:22;;;;;;;8.33;4.30;;;26.00;99.90;;;25.85;nan;101618.56;5013204;28;20615;-66
2022/10/18 10:41:56;;;;;;;10.40;4.37;;;25.30;99.90;;;25.33;nan;101618.63;4997281;28;20632;-68
2022/10/18 10:44:27;;;;;;;9.63;4.47;;;24.70;99.90;;;24.96;nan;101633.84;4996869;28;21038;-65
2022/10/18 10:46:55;;;;;;;5.57;4.20;;;24.20;99.90;;;24.51;nan;101630.09;5014562;28;20638;-65